Terminal Aerodrome Forecast
Issued by NWS Columbia, SC

Home | Current Version | Previous Version | Text Only | Print | Product List | Glossary On
Versions: 1 2 3 4 5 6 7 8 9 10 11 12 13 14 15 16 17 18 19 20 21 22 23 24 25 26 27 28 29 30 31 32 33 34 35 36 37 38 39 40 41 42 43 44 45 46 47
000
FTUS42 KCAE 011100 CCA
TAFAGS
TAF COR
KAGS 011157Z 0112/0212 VRB04KT P6SM FEW030 OVC150
     FM011800 21006KT P6SM SCT050 BKN150
     FM020200 VRB03KT P6SM SCT250
     FM020900 VRB03KT 3SM BR SCT005=

USA.gov is the U.S. government's official web portal to all federal, state and local government web resources and services.